createdAt,value
2019-05-23T00:01:33.713Z,7.97
2019-05-23T00:04:15.005Z,11.07
2019-05-23T00:06:45.189Z,8.20
2019-05-23T00:09:15.455Z,7.17
2019-05-23T00:11:56.186Z,6.90
2019-05-23T00:14:37.886Z,7.57
2019-05-23T00:17:10.848Z,8.73
2019-05-23T00:19:41.045Z,7.93
2019-05-23T00:22:11.529Z,11.50
2019-05-23T00:24:42.732Z,11.97
2019-05-23T00:27:13.028Z,9.67
2019-05-23T00:29:45.655Z,14.17
2019-05-23T00:32:27.086Z,9.77
2019-05-23T00:34:57.572Z,8.07
2019-05-23T00:37:30.251Z,11.30
2019-05-23T00:40:01.299Z,10.57
2019-05-23T00:42:31.978Z,9.43
2019-05-23T00:45:02.741Z,9.87
2019-05-23T00:47:33.430Z,10.40
2019-05-23T00:50:06.432Z,8.43
2019-05-23T00:52:37.488Z,11.00
2019-05-23T00:55:08.562Z,9.97
2019-05-23T00:57:42.241Z,17.17
2019-05-23T01:00:15.868Z,11.67
2019-05-23T01:02:46.476Z,14.13
2019-05-23T01:05:17.440Z,9.87
2019-05-23T01:07:48.459Z,9.73
2019-05-23T01:10:19.358Z,10.17
2019-05-23T01:12:50.111Z,12.83
2019-05-23T01:15:22.537Z,10.93
2019-05-23T01:17:53.718Z,12.77
2019-05-23T01:20:31.214Z,10.07
2019-05-23T01:23:02.702Z,13.20
2019-05-23T01:25:33.508Z,14.37
2019-05-23T01:28:03.032Z,13.00
2019-05-23T01:30:38.179Z,11.77
2019-05-23T01:33:07.851Z,12.57
2019-05-23T01:35:38.794Z,13.07
2019-05-23T01:38:08.335Z,11.17
2019-05-23T01:40:38.016Z,10.50
2019-05-23T01:43:07.919Z,17.17
2019-05-23T01:45:38.509Z,11.00
2019-05-23T01:48:07.496Z,10.53
2019-05-23T01:50:36.827Z,14.63
2019-05-23T01:53:07.579Z,11.63
2019-05-23T01:55:36.655Z,12.17
2019-05-23T01:58:06.743Z,11.00
2019-05-23T02:00:35.779Z,11.83
2019-05-23T02:03:05.271Z,15.90
2019-05-23T02:05:34.539Z,11.73
2019-05-23T02:08:04.970Z,14.20
2019-05-23T02:10:34.998Z,14.10
2019-05-23T02:13:04.102Z,13.83
2019-05-23T02:15:34.818Z,12.90
2019-05-23T02:18:04.591Z,15.70
2019-05-23T02:20:35.222Z,12.10
2019-05-23T02:23:04.654Z,14.43
2019-05-23T02:25:35.244Z,15.07
2019-05-23T02:28:04.507Z,9.37
2019-05-23T02:30:35.757Z,15.63
2019-05-23T02:33:05.591Z,8.90
2019-05-23T02:35:35.314Z,14.10
2019-05-23T02:38:22.415Z,17.63
2019-05-23T02:41:13.870Z,11.87
2019-05-23T02:43:47.343Z,13.80
2019-05-23T02:46:29.556Z,11.60
2019-05-23T02:49:04.103Z,14.30
2019-05-23T02:51:37.059Z,12.10
2019-05-23T02:54:09.583Z,14.87
2019-05-23T02:56:40.046Z,16.23
2019-05-23T02:59:21.598Z,12.13
2019-05-23T03:02:43.326Z,13.43
2019-05-23T03:05:14.492Z,13.70
2019-05-23T03:07:45.328Z,14.63
2019-05-23T03:10:18.957Z,11.87
2019-05-23T03:12:49.501Z,13.90
2019-05-23T03:15:19.286Z,12.20
2019-05-23T03:17:52.543Z,11.80
2019-05-23T03:20:22.049Z,12.63
2019-05-23T03:22:57.018Z,19.00
2019-05-23T03:26:19.848Z,15.03
2019-05-23T03:28:49.645Z,21.97
2019-05-23T03:31:31.942Z,17.63
2019-05-23T03:34:00.232Z,17.17
2019-05-23T03:36:29.903Z,14.57
2019-05-23T03:38:59.131Z,16.33
2019-05-23T03:41:30.405Z,15.40
2019-05-23T03:44:01.575Z,14.77
2019-05-23T03:46:32.535Z,14.33
2019-05-23T03:49:02.122Z,19.87
2019-05-23T03:51:31.882Z,18.53
2019-05-23T03:54:02.354Z,13.63
2019-05-23T03:56:31.726Z,14.30
2019-05-23T03:59:01.738Z,13.47
2019-05-23T04:01:47.115Z,14.93
2019-05-23T04:04:03.152Z,15.93
2019-05-23T04:06:32.993Z,18.53
2019-05-23T04:09:03.801Z,13.70
2019-05-23T04:11:32.821Z,14.53
2019-05-23T04:14:01.821Z,18.37
2019-05-23T04:16:31.036Z,22.47
2019-05-23T04:19:00.571Z,14.80
2019-05-23T04:21:29.617Z,11.67
2019-05-23T04:23:59.037Z,16.90
2019-05-23T04:26:28.562Z,12.00
2019-05-23T04:28:58.167Z,13.73
2019-05-23T04:31:27.416Z,17.80
2019-05-23T04:33:56.810Z,12.83
2019-05-23T04:36:25.954Z,14.00
2019-05-23T04:38:54.999Z,13.77
2019-05-23T04:41:24.438Z,14.77
2019-05-23T04:43:53.504Z,16.47
2019-05-23T04:46:22.674Z,14.23
2019-05-23T04:48:53.389Z,16.73
2019-05-23T04:51:23.966Z,13.47
2019-05-23T04:53:54.015Z,16.37
2019-05-23T04:56:23.933Z,13.43
2019-05-23T04:58:53.656Z,16.00
2019-05-23T05:01:22.987Z,12.37
2019-05-23T05:03:52.770Z,16.27
2019-05-23T05:06:21.818Z,12.77
2019-05-23T05:08:52.389Z,15.50
2019-05-23T05:11:22.017Z,13.43
2019-05-23T05:13:51.428Z,16.40
2019-05-23T05:16:21.059Z,12.47
2019-05-23T05:18:50.033Z,18.57
2019-05-23T05:21:19.288Z,17.07
2019-05-23T05:23:48.259Z,13.30
2019-05-23T05:26:23.638Z,16.40
2019-05-23T05:28:52.729Z,14.37
2019-05-23T05:31:21.859Z,12.10
2019-05-23T05:33:50.824Z,15.00
2019-05-23T05:36:20.126Z,19.37
2019-05-23T05:38:50.527Z,19.37
2019-05-23T05:41:20.523Z,13.83
2019-05-23T05:43:49.791Z,14.00
2019-05-23T05:46:19.833Z,13.07
2019-05-23T05:48:48.974Z,16.37
2019-05-23T05:51:18.023Z,15.47
2019-05-23T05:53:47.958Z,13.87
2019-05-23T05:56:17.223Z,17.20
2019-05-23T05:58:47.285Z,13.90
2019-05-23T06:01:32.983Z,17.30
2019-05-23T06:03:49.939Z,18.07
2019-05-23T06:06:32.821Z,20.00
2019-05-23T06:09:07.043Z,14.40
2019-05-23T06:11:36.157Z,16.90
2019-05-23T06:14:06.558Z,16.73
2019-05-23T06:16:35.902Z,12.00
2019-05-23T06:19:06.310Z,16.93
2019-05-23T06:21:35.382Z,15.47
2019-05-23T06:24:05.607Z,12.93
2019-05-23T06:26:34.826Z,10.77
2019-05-23T06:29:04.250Z,10.53
2019-05-23T06:31:33.584Z,13.07
2019-05-23T06:34:03.376Z,9.70
2019-05-23T06:36:33.040Z,10.00
2019-05-23T06:39:02.740Z,11.80
2019-05-23T06:41:32.391Z,10.93
2019-05-23T06:44:01.857Z,12.73
2019-05-23T06:46:31.109Z,9.67
2019-05-23T06:49:01.475Z,10.27
2019-05-23T06:51:31.103Z,8.70
2019-05-23T06:54:00.579Z,11.37
2019-05-23T06:56:29.701Z,9.83
2019-05-23T06:58:58.902Z,8.73
2019-05-23T07:01:28.624Z,11.43
2019-05-23T07:03:58.077Z,8.63
2019-05-23T07:06:27.187Z,7.63
2019-05-23T07:08:56.520Z,8.40
2019-05-23T07:11:26.625Z,12.70
2019-05-23T07:13:56.319Z,11.40
2019-05-23T07:16:26.004Z,9.10
2019-05-23T07:18:55.121Z,7.70
2019-05-23T07:21:25.067Z,7.07
2019-05-23T07:23:54.208Z,7.17
2019-05-23T07:26:23.629Z,5.83
2019-05-23T07:28:53.155Z,6.33
2019-05-23T07:31:22.299Z,8.53
2019-05-23T07:34:01.059Z,7.20
2019-05-23T07:36:22.187Z,6.57
2019-05-23T07:38:51.251Z,4.63
2019-05-23T07:41:20.739Z,4.47
2019-05-23T07:43:49.699Z,9.30
2019-05-23T07:46:18.781Z,6.53
2019-05-23T07:48:48.201Z,4.40
2019-05-23T07:51:17.315Z,4.57
2019-05-23T07:54:04.660Z,3.90
2019-05-23T07:56:36.338Z,8.03
2019-05-23T07:59:05.522Z,4.77
2019-05-23T08:01:38.209Z,3.83
2019-05-23T08:04:20.683Z,4.27
2019-05-23T08:06:39.960Z,3.83
2019-05-23T08:09:09.588Z,3.30
2019-05-23T08:11:39.091Z,3.23
2019-05-23T08:14:11.855Z,4.87
2019-05-23T08:16:39.268Z,3.47
2019-05-23T08:19:08.508Z,3.57
2019-05-23T08:21:37.702Z,4.03
2019-05-23T08:24:07.529Z,4.77
2019-05-23T08:26:36.969Z,3.77
2019-05-23T08:29:24.742Z,5.53
2019-05-23T08:31:37.782Z,3.47
2019-05-23T08:34:07.316Z,5.47
2019-05-23T08:36:36.478Z,3.53
2019-05-23T08:39:08.746Z,6.80
2019-05-23T08:41:38.556Z,3.33
2019-05-23T08:44:11.425Z,2.60
2019-05-23T08:46:39.483Z,2.37
2019-05-23T08:49:08.983Z,3.07
2019-05-23T08:51:38.445Z,2.10
2019-05-23T08:54:07.664Z,2.73
2019-05-23T08:56:37.405Z,4.07
2019-05-23T08:59:07.526Z,3.43
2019-05-23T09:01:36.974Z,1.63
2019-05-23T09:04:06.856Z,2.13
2019-05-23T09:06:35.927Z,2.97
2019-05-23T09:09:27.677Z,2.70
2019-05-23T09:11:40.897Z,2.43
2019-05-23T09:14:12.072Z,3.90
2019-05-23T09:16:40.890Z,3.27
2019-05-23T09:19:10.177Z,3.47
2019-05-23T09:21:39.342Z,4.97
2019-05-23T09:24:09.739Z,2.13
2019-05-23T09:26:38.763Z,2.27
2019-05-23T09:29:08.245Z,2.33
2019-05-23T09:31:37.742Z,2.37
2019-05-23T09:34:06.824Z,2.70
2019-05-23T09:36:36.177Z,2.10
2019-05-23T09:39:08.570Z,1.90
2019-05-23T09:41:38.164Z,6.20
2019-05-23T09:44:07.691Z,5.10
2019-05-23T09:46:36.754Z,8.93
2019-05-23T09:49:05.992Z,2.23
2019-05-23T09:51:34.948Z,3.83
2019-05-23T09:54:04.062Z,3.67
2019-05-23T09:56:33.521Z,5.57
2019-05-23T09:59:02.663Z,1.70
2019-05-23T10:01:31.762Z,6.10
2019-05-23T10:04:01.102Z,3.80
2019-05-23T10:06:30.523Z,3.90
2019-05-23T10:08:59.933Z,3.03
2019-05-23T10:11:29.034Z,2.87
2019-05-23T10:13:58.226Z,2.30
2019-05-23T10:16:27.692Z,2.03
2019-05-23T10:18:56.865Z,1.60
2019-05-23T10:21:26.163Z,2.53
2019-05-23T10:23:55.179Z,1.77
2019-05-23T10:26:24.474Z,2.23
2019-05-23T10:28:53.434Z,4.00
2019-05-23T10:31:22.535Z,1.40
2019-05-23T10:33:51.587Z,2.10
2019-05-23T10:36:21.028Z,5.73
2019-05-23T10:38:50.058Z,1.40
2019-05-23T10:41:19.289Z,2.20
2019-05-23T10:43:48.283Z,5.77
2019-05-23T10:46:17.465Z,3.77
2019-05-23T10:48:47.278Z,4.83
2019-05-23T10:51:16.220Z,4.40
2019-05-23T10:53:45.182Z,3.20
2019-05-23T10:56:14.463Z,7.03
2019-05-23T10:58:43.792Z,3.10
2019-05-23T11:01:13.052Z,5.70
2019-05-23T11:03:42.434Z,2.87
2019-05-23T11:06:16.190Z,5.23
2019-05-23T11:08:42.887Z,1.83
2019-05-23T11:11:14.644Z,2.43
2019-05-23T11:13:45.179Z,2.13
2019-05-23T11:16:14.609Z,2.43
2019-05-23T11:18:43.937Z,3.37
2019-05-23T11:21:13.238Z,1.40
2019-05-23T11:23:47.075Z,3.23
2019-05-23T11:26:16.307Z,3.47
2019-05-23T11:28:45.419Z,1.97
2019-05-23T11:31:15.255Z,3.20
2019-05-23T11:33:44.349Z,1.90
2019-05-23T11:36:14.369Z,1.70
2019-05-23T11:38:43.659Z,4.93
2019-05-23T11:41:13.041Z,3.60
2019-05-23T11:43:43.747Z,6.60
2019-05-23T11:46:31.641Z,1.83
2019-05-23T11:49:01.395Z,1.77
2019-05-23T11:51:30.664Z,2.43
2019-05-23T11:54:07.574Z,3.07
2019-05-23T11:56:31.911Z,8.50
2019-05-23T11:59:02.021Z,1.90
2019-05-23T12:01:53.929Z,2.03
2019-05-23T12:04:26.238Z,5.73
2019-05-23T12:07:12.403Z,5.90
2019-05-23T12:09:41.877Z,5.60
2019-05-23T12:12:11.227Z,2.97
2019-05-23T12:14:41.893Z,3.47
2019-05-23T12:17:12.641Z,2.43
2019-05-23T12:19:42.317Z,4.50
2019-05-23T12:22:12.423Z,1.73
2019-05-23T12:24:41.464Z,2.23
2019-05-23T12:27:11.995Z,4.53
2019-05-23T12:29:41.128Z,3.23
2019-05-23T12:32:11.917Z,1.57
2019-05-23T12:34:41.030Z,3.17
2019-05-23T12:37:20.168Z,3.67
2019-05-23T12:39:41.069Z,3.20
2019-05-23T12:42:10.264Z,8.13
2019-05-23T12:44:39.415Z,3.27
2019-05-23T12:47:14.105Z,6.93
2019-05-23T12:49:47.935Z,2.73
2019-05-23T12:52:17.062Z,3.70
2019-05-23T12:54:46.480Z,1.50
2019-05-23T12:57:16.028Z,2.80
2019-05-23T12:59:45.294Z,2.93
2019-05-23T13:02:19.817Z,5.23
2019-05-23T13:04:49.063Z,1.63
2019-05-23T13:07:34.499Z,1.83
2019-05-23T13:09:49.253Z,2.43
2019-05-23T13:12:18.377Z,1.50
2019-05-23T13:14:47.491Z,1.57
2019-05-23T13:17:16.526Z,4.37
2019-05-23T13:19:45.939Z,3.33
2019-05-23T13:22:15.095Z,3.30
2019-05-23T13:24:52.649Z,5.63
2019-05-23T13:27:15.922Z,2.80
2019-05-23T13:29:45.303Z,4.57
2019-05-23T13:32:14.439Z,3.40
2019-05-23T13:34:43.829Z,1.70
2019-05-23T13:37:16.953Z,4.97
2019-05-23T13:39:46.249Z,2.17
2019-05-23T13:42:15.308Z,3.37
2019-05-23T13:44:44.619Z,2.57
2019-05-23T13:47:13.681Z,2.27
2019-05-23T13:49:42.763Z,1.60
2019-05-23T13:52:11.932Z,2.00
2019-05-23T13:54:40.931Z,1.70
2019-05-23T13:57:11.222Z,4.33
2019-05-23T13:59:40.487Z,2.63
2019-05-23T14:02:09.979Z,1.40
2019-05-23T14:04:39.405Z,2.03
2019-05-23T14:07:10.600Z,2.23
2019-05-23T14:09:40.960Z,4.13
2019-05-23T14:12:25.308Z,2.30
2019-05-23T14:14:40.700Z,7.20
2019-05-23T14:17:22.426Z,5.27
2019-05-23T14:19:51.540Z,2.30
2019-05-23T14:22:21.733Z,2.97
2019-05-23T14:24:51.417Z,1.73
2019-05-23T14:27:40.301Z,2.43
2019-05-23T14:30:20.227Z,3.60
2019-05-23T14:32:54.572Z,6.73
2019-05-23T14:35:29.932Z,4.00
2019-05-23T14:38:00.976Z,2.30
2019-05-23T14:40:30.357Z,2.60
2019-05-23T14:43:13.607Z,1.93
2019-05-23T14:45:59.434Z,2.90
2019-05-23T14:48:59.562Z,4.27
2019-05-23T14:51:57.155Z,2.23
2019-05-23T14:54:35.060Z,3.17
2019-05-23T14:57:05.424Z,1.77
2019-05-23T14:59:34.757Z,5.70
2019-05-23T15:02:06.316Z,7.77
2019-05-23T15:04:35.310Z,4.13
2019-05-23T15:07:04.516Z,6.30
2019-05-23T15:09:33.631Z,5.50
2019-05-23T15:12:03.044Z,2.93
2019-05-23T15:14:32.035Z,4.03
2019-05-23T15:17:01.151Z,4.53
2019-05-23T15:19:41.839Z,2.50
2019-05-23T15:22:01.208Z,4.33
2019-05-23T15:24:30.711Z,3.30
2019-05-23T15:27:00.026Z,6.00
2019-05-23T15:29:29.560Z,12.57
2019-05-23T15:32:02.496Z,5.03
2019-05-23T15:34:29.675Z,3.47
2019-05-23T15:36:58.754Z,4.13
2019-05-23T15:39:28.310Z,2.40
2019-05-23T15:41:57.287Z,1.87
2019-05-23T15:44:29.203Z,4.63
2019-05-23T15:46:57.664Z,3.57
2019-05-23T15:49:26.611Z,2.50
2019-05-23T15:52:02.536Z,4.30
2019-05-23T15:54:46.650Z,9.43
2019-05-23T15:57:22.948Z,3.20
2019-05-23T15:59:57.132Z,3.17
2019-05-23T16:02:31.347Z,2.73
2019-05-23T16:05:02.255Z,4.03
2019-05-23T16:07:32.102Z,2.33
2019-05-23T16:10:01.434Z,2.67
2019-05-23T16:12:31.096Z,3.67
2019-05-23T16:15:00.084Z,3.20
2019-05-23T16:17:29.476Z,7.00
2019-05-23T16:19:58.610Z,2.80
2019-05-23T16:22:28.596Z,1.93
2019-05-23T16:24:57.710Z,2.27
2019-05-23T16:27:26.965Z,4.90
2019-05-23T16:29:56.130Z,7.77
2019-05-23T16:32:25.774Z,3.70
2019-05-23T16:34:54.857Z,3.23
2019-05-23T16:37:24.118Z,2.87
2019-05-23T16:39:53.283Z,6.00
2019-05-23T16:42:22.486Z,3.03
2019-05-23T16:44:52.118Z,6.33
2019-05-23T16:47:21.953Z,4.17
2019-05-23T16:49:51.101Z,3.80
2019-05-23T16:52:20.400Z,5.40
2019-05-23T16:54:51.119Z,4.27
2019-05-23T16:57:39.325Z,5.90
2019-05-23T17:00:26.865Z,3.70
2019-05-23T17:03:04.195Z,3.83
2019-05-23T17:05:47.097Z,5.37
2019-05-23T17:08:29.173Z,5.80
2019-05-23T17:11:03.351Z,4.33
2019-05-23T17:13:42.398Z,3.80
2019-05-23T17:16:28.613Z,4.03
2019-05-23T17:19:26.420Z,4.77
2019-05-23T17:22:12.789Z,5.50
2019-05-23T17:24:48.050Z,5.90
2019-05-23T17:27:31.325Z,6.70
2019-05-23T17:30:19.605Z,4.23
2019-05-23T17:32:49.514Z,2.43
2019-05-23T17:35:18.892Z,4.00
2019-05-23T17:37:48.122Z,2.77
2019-05-23T17:40:25.012Z,10.30
2019-05-23T17:42:48.659Z,4.47
2019-05-23T17:45:18.226Z,3.03
2019-05-23T17:47:47.921Z,7.00
2019-05-23T17:50:17.388Z,1.90
2019-05-23T17:52:57.008Z,3.30
2019-05-23T17:55:28.115Z,2.27
2019-05-23T17:57:58.747Z,3.70
2019-05-23T18:00:34.296Z,3.87
2019-05-23T18:03:04.608Z,2.97
2019-05-23T18:05:34.740Z,6.00
2019-05-23T18:08:05.133Z,3.80
2019-05-23T18:10:44.727Z,6.03
2019-05-23T18:13:07.451Z,3.37
2019-05-23T18:15:36.911Z,3.23
2019-05-23T18:18:06.491Z,3.00
2019-05-23T18:20:37.370Z,4.27
2019-05-23T18:23:09.062Z,6.20
2019-05-23T18:25:39.779Z,5.53
2019-05-23T18:28:09.418Z,2.93
2019-05-23T18:30:57.982Z,3.83
2019-05-23T18:33:28.512Z,3.73
2019-05-23T18:35:57.835Z,5.33
2019-05-23T18:38:27.151Z,4.33
2019-05-23T18:41:04.064Z,4.10
2019-05-23T18:43:27.153Z,4.20
2019-05-23T18:45:59.794Z,2.83
2019-05-23T18:48:29.559Z,7.57
2019-05-23T18:50:59.138Z,5.17
2019-05-23T18:53:29.261Z,5.07
2019-05-23T18:55:58.916Z,5.47
2019-05-23T18:58:28.254Z,5.50
2019-05-23T19:01:03.412Z,3.13
2019-05-23T19:03:33.200Z,5.50
2019-05-23T19:06:02.236Z,5.97
2019-05-23T19:08:32.622Z,4.57
2019-05-23T19:11:01.659Z,4.40
2019-05-23T19:13:31.083Z,4.33
2019-05-23T19:16:00.210Z,10.33
2019-05-23T19:18:33.370Z,4.67
2019-05-23T19:21:02.387Z,4.03
2019-05-23T19:23:31.767Z,4.93
2019-05-23T19:26:01.801Z,5.77
2019-05-23T19:28:31.577Z,4.97
2019-05-23T19:31:00.747Z,7.50
2019-05-23T19:33:30.313Z,4.47
2019-05-23T19:35:59.785Z,5.23
2019-05-23T19:38:28.814Z,4.77
2019-05-23T19:40:58.343Z,6.00
2019-05-23T19:43:28.424Z,9.97
2019-05-23T19:45:57.463Z,6.87
2019-05-23T19:48:27.222Z,7.13
2019-05-23T19:50:57.090Z,8.30
2019-05-23T19:53:26.225Z,7.30
2019-05-23T19:55:55.370Z,7.13
2019-05-23T19:58:25.021Z,9.57
2019-05-23T20:00:54.759Z,4.80
2019-05-23T20:03:23.980Z,5.27
2019-05-23T20:05:54.794Z,6.03
2019-05-23T20:08:23.878Z,4.37
2019-05-23T20:10:52.979Z,14.40
2019-05-23T20:13:22.735Z,3.70
2019-05-23T20:15:52.114Z,7.43
2019-05-23T20:18:21.683Z,8.07
2019-05-23T20:20:51.382Z,7.10
2019-05-23T20:23:20.839Z,10.93
2019-05-23T20:25:49.893Z,18.93
2019-05-23T20:28:19.071Z,17.17
2019-05-23T20:30:53.366Z,19.63
2019-05-23T20:33:22.435Z,16.13
2019-05-23T20:35:51.640Z,11.50
2019-05-23T20:38:20.943Z,10.07
2019-05-23T20:40:54.296Z,9.47
2019-05-23T20:43:23.311Z,9.63
2019-05-23T20:45:52.471Z,12.37
2019-05-23T20:48:22.182Z,18.83
2019-05-23T20:50:51.191Z,9.67
2019-05-23T20:53:20.354Z,11.87
2019-05-23T20:55:49.350Z,6.93
2019-05-23T20:58:18.474Z,11.40
2019-05-23T21:01:06.604Z,13.57
2019-05-23T21:03:36.204Z,5.67
2019-05-23T21:06:06.540Z,6.47
2019-05-23T21:08:36.093Z,10.53
2019-05-23T21:11:05.238Z,7.87
2019-05-23T21:13:34.515Z,13.13
2019-05-23T21:16:03.784Z,5.97
2019-05-23T21:18:32.864Z,9.33
2019-05-23T21:21:01.920Z,6.40
2019-05-23T21:23:31.040Z,8.57
2019-05-23T21:26:04.192Z,9.43
2019-05-23T21:28:33.347Z,6.83
2019-05-23T21:31:03.747Z,14.93
2019-05-23T21:33:32.791Z,6.83
2019-05-23T21:36:01.759Z,11.77
2019-05-23T21:38:30.739Z,11.83
2019-05-23T21:41:03.164Z,4.97
2019-05-23T21:43:30.516Z,8.87
2019-05-23T21:45:59.826Z,8.93
2019-05-23T21:48:28.819Z,10.07
2019-05-23T21:50:57.774Z,7.80
2019-05-23T21:53:26.744Z,7.93
2019-05-23T21:55:55.831Z,8.43
2019-05-23T21:58:24.955Z,6.63
2019-05-23T22:01:30.017Z,6.83
2019-05-23T22:04:09.915Z,4.57
2019-05-23T22:06:39.555Z,8.53
2019-05-23T22:09:11.450Z,10.70
2019-05-23T22:11:40.592Z,14.03
2019-05-23T22:14:09.722Z,8.37
2019-05-23T22:16:39.108Z,7.43
2019-05-23T22:19:10.639Z,6.47
2019-05-23T22:21:39.805Z,6.50
2019-05-23T22:24:09.603Z,7.43
2019-05-23T22:26:39.747Z,10.83
2019-05-23T22:29:09.856Z,8.80
2019-05-23T22:31:39.593Z,8.50
2019-05-23T22:34:37.955Z,6.00
2019-05-23T22:37:15.297Z,6.83
2019-05-23T22:39:44.438Z,7.83
2019-05-23T22:42:15.067Z,9.13
2019-05-23T22:44:44.412Z,8.23
2019-05-23T22:47:13.483Z,6.40
2019-05-23T22:49:42.483Z,7.03
2019-05-23T22:52:11.582Z,6.23
2019-05-23T22:54:40.597Z,9.23
2019-05-23T22:57:09.880Z,7.80
2019-05-23T22:59:38.983Z,5.13
2019-05-23T23:02:11.984Z,5.73
2019-05-23T23:04:40.884Z,6.57
2019-05-23T23:07:10.497Z,9.93
2019-05-23T23:09:39.914Z,11.17
2019-05-23T23:12:09.262Z,5.97
2019-05-23T23:14:38.359Z,9.27
2019-05-23T23:17:07.874Z,8.07
2019-05-23T23:19:36.953Z,8.77
2019-05-23T23:22:07.693Z,8.70
2019-05-23T23:24:36.818Z,5.67
2019-05-23T23:27:06.115Z,8.23
2019-05-23T23:29:35.327Z,6.13
2019-05-23T23:32:04.751Z,7.33
2019-05-23T23:34:34.032Z,7.60
2019-05-23T23:37:03.172Z,7.53
2019-05-23T23:39:32.253Z,7.53
2019-05-23T23:42:01.363Z,5.33
2019-05-23T23:44:35.448Z,4.60
2019-05-23T23:47:23.352Z,10.37
2019-05-23T23:50:10.459Z,9.17
2019-05-23T23:52:58.356Z,9.97
2019-05-23T23:55:45.594Z,11.67
2019-05-23T23:58:13.814Z,14.77
